createdAt,value
2018-09-11T00:00:27.007Z,44.87
2018-09-11T00:02:54.410Z,45.44
2018-09-11T00:05:22.395Z,44.59
2018-09-11T00:07:50.042Z,45.54
2018-09-11T00:10:17.707Z,44.60
2018-09-11T00:12:45.447Z,44.79
2018-09-11T00:15:13.031Z,44.79
2018-09-11T00:17:40.731Z,45.54
2018-09-11T00:20:07.869Z,45.93
2018-09-11T00:22:35.907Z,45.54
2018-09-11T00:25:03.727Z,45.66
2018-09-11T00:27:31.491Z,44.79
2018-09-11T00:29:59.142Z,44.87
2018-09-11T00:32:26.738Z,44.91
2018-09-11T00:34:54.467Z,44.88
2018-09-11T00:37:21.628Z,45.50
2018-09-11T00:39:49.435Z,45.63
2018-09-11T00:42:17.197Z,45.58
2018-09-11T00:44:44.943Z,44.93
2018-09-11T00:49:45.172Z,45.68
2018-09-11T00:52:12.727Z,45.78
2018-09-11T00:54:40.469Z,45.04
2018-09-11T00:57:08.019Z,45.14
2018-09-11T00:59:35.294Z,45.59
2018-09-11T01:02:02.895Z,45.64
2018-09-11T01:04:30.584Z,45.93
2018-09-11T01:06:58.571Z,46.03
2018-09-11T01:09:25.746Z,45.66
2018-09-11T01:11:53.526Z,45.95
2018-09-11T01:14:21.023Z,46.00
2018-09-11T01:16:48.951Z,45.57
2018-09-11T01:19:16.582Z,45.92
2018-09-11T01:21:44.059Z,45.83
2018-09-11T01:24:11.743Z,46.00
2018-09-11T01:26:39.447Z,45.26
2018-09-11T01:29:07.027Z,45.57
2018-09-11T01:31:34.791Z,45.47
2018-09-11T01:34:02.506Z,45.76
2018-09-11T01:36:30.193Z,46.30
2018-09-11T01:38:57.875Z,45.88
2018-09-11T01:41:25.728Z,45.85
2018-09-11T01:43:53.598Z,46.38
2018-09-11T01:46:21.265Z,45.58
2018-09-11T01:48:48.894Z,46.11
2018-09-11T01:51:16.026Z,45.90
2018-09-11T01:53:43.206Z,45.98
2018-09-11T01:56:10.835Z,46.44
2018-09-11T01:58:38.698Z,46.29
2018-09-11T02:01:06.339Z,46.01
2018-09-11T02:03:34.423Z,46.19
2018-09-11T02:06:02.006Z,45.48
2018-09-11T02:08:29.220Z,45.87
2018-09-11T02:10:56.894Z,46.08
2018-09-11T02:13:24.639Z,45.62
2018-09-11T02:15:51.907Z,45.79
2018-09-11T02:18:19.586Z,45.83
2018-09-11T02:20:47.072Z,46.02
2018-09-11T02:23:14.751Z,46.39
2018-09-11T02:25:42.567Z,46.02
2018-09-11T02:28:10.286Z,46.72
2018-09-11T02:30:37.888Z,46.81
2018-09-11T02:33:05.588Z,46.31
2018-09-11T02:35:33.340Z,45.95
2018-09-11T02:38:00.946Z,45.94
2018-09-11T02:40:28.734Z,46.27
2018-09-11T02:42:56.439Z,46.02
2018-09-11T02:45:24.015Z,45.88
2018-09-11T02:47:53.628Z,46.18
2018-09-11T02:50:21.294Z,46.65
2018-09-11T02:52:48.414Z,46.64
2018-09-11T02:55:16.390Z,46.75
2018-09-11T02:57:43.971Z,46.44
2018-09-11T03:00:11.679Z,46.06
2018-09-11T03:02:39.411Z,46.82
2018-09-11T03:05:07.071Z,46.96
2018-09-11T03:07:34.735Z,46.30
2018-09-11T03:10:02.579Z,46.25
2018-09-11T03:12:30.403Z,46.25
2018-09-11T03:14:58.298Z,46.31
2018-09-11T03:17:25.903Z,46.41
2018-09-11T03:19:53.682Z,46.79
2018-09-11T03:22:21.410Z,47.06
2018-09-11T03:24:49.026Z,46.73
2018-09-11T03:27:16.174Z,46.23
2018-09-11T03:30:00.033Z,46.52
2018-09-11T03:32:27.644Z,46.80
2018-09-11T03:34:55.579Z,45.97
2018-09-11T03:37:23.066Z,47.06
2018-09-11T03:39:50.827Z,47.01
2018-09-11T03:42:18.706Z,46.35
2018-09-11T03:44:46.460Z,46.42
2018-09-11T03:47:14.030Z,46.54
2018-09-11T03:49:41.387Z,46.55
2018-09-11T03:52:08.990Z,46.53
2018-09-11T03:54:36.780Z,46.92
2018-09-11T03:57:04.566Z,47.29
2018-09-11T03:59:32.199Z,46.49
2018-09-11T04:01:59.723Z,46.70
2018-09-11T04:04:27.563Z,47.38
2018-09-11T04:06:55.070Z,47.27
2018-09-11T04:09:22.875Z,46.41
2018-09-11T04:11:50.038Z,46.78
2018-09-11T04:14:17.293Z,47.14
2018-09-11T04:16:44.866Z,47.13
2018-09-11T04:19:12.569Z,47.05
2018-09-11T04:21:40.172Z,47.26
2018-09-11T04:24:07.771Z,47.30
2018-09-11T04:26:35.625Z,47.47
2018-09-11T04:29:03.299Z,46.77
2018-09-11T04:31:30.997Z,47.04
2018-09-11T04:33:58.742Z,47.03
2018-09-11T04:36:26.472Z,46.88
2018-09-11T04:38:54.015Z,47.46
2018-09-11T04:41:21.394Z,47.43
2018-09-11T04:43:49.386Z,47.65
2018-09-11T04:46:17.051Z,47.37
2018-09-11T04:48:45.478Z,47.82
2018-09-11T04:51:13.323Z,46.94
2018-09-11T04:53:41.058Z,46.95
2018-09-11T04:56:08.747Z,46.81
2018-09-11T04:58:36.903Z,47.21
2018-09-11T05:01:05.580Z,47.04
2018-09-11T05:03:33.338Z,46.93
2018-09-11T05:06:00.502Z,47.46
2018-09-11T05:08:28.134Z,47.51
2018-09-11T05:11:01.619Z,46.86
2018-09-11T05:13:47.618Z,47.74
2018-09-11T05:16:15.559Z,47.29
2018-09-11T05:18:43.179Z,47.31
2018-09-11T05:21:10.846Z,47.37
2018-09-11T05:23:38.566Z,47.24
2018-09-11T05:26:06.315Z,47.65
2018-09-11T05:28:33.915Z,47.52
2018-09-11T05:31:01.595Z,48.00
2018-09-11T05:33:29.293Z,48.13
2018-09-11T05:35:56.475Z,47.89
2018-09-11T05:38:24.032Z,47.61
2018-09-11T05:40:51.756Z,47.44
2018-09-11T05:43:19.718Z,47.71
2018-09-11T05:45:46.850Z,47.82
2018-09-11T05:48:14.576Z,48.21
2018-09-11T05:50:42.482Z,47.54
2018-09-11T05:53:10.030Z,47.77
2018-09-11T05:55:37.745Z,47.59
2018-09-11T05:58:05.475Z,48.38
2018-09-11T06:00:33.167Z,47.57
2018-09-11T06:03:00.896Z,48.08
2018-09-11T06:05:28.609Z,48.08
2018-09-11T06:07:56.394Z,48.20
2018-09-11T06:10:23.954Z,48.36
2018-09-11T06:12:51.582Z,47.73
2018-09-11T06:15:19.070Z,48.09
2018-09-11T06:18:51.746Z,47.31
2018-09-11T06:21:19.525Z,47.56
2018-09-11T06:23:47.300Z,48.17
2018-09-11T06:26:15.023Z,47.93
2018-09-11T06:28:42.290Z,47.94
2018-09-11T06:31:09.994Z,48.39
2018-09-11T06:33:37.687Z,48.13
2018-09-11T06:36:05.807Z,47.53
2018-09-11T06:38:33.570Z,47.56
2018-09-11T06:41:01.399Z,47.57
2018-09-11T06:43:29.571Z,47.89
2018-09-11T06:45:57.286Z,47.86
2018-09-11T06:48:24.967Z,48.17
2018-09-11T06:50:52.874Z,47.73
2018-09-11T06:53:20.731Z,48.30
2018-09-11T06:55:48.570Z,47.43
2018-09-11T06:58:16.154Z,47.46
2018-09-11T07:00:43.489Z,47.22
2018-09-11T07:03:11.291Z,47.18
2018-09-11T07:05:38.911Z,47.35
2018-09-11T07:08:06.754Z,47.03
2018-09-11T07:10:34.526Z,47.98
2018-09-11T07:13:02.177Z,47.94
2018-09-11T07:15:30.359Z,47.17
2018-09-11T07:17:58.346Z,47.07
2018-09-11T07:20:26.026Z,47.09
2018-09-11T07:22:53.733Z,47.46
2018-09-11T07:25:21.366Z,47.36
2018-09-11T07:27:49.221Z,47.35
2018-09-11T07:30:16.875Z,47.79
2018-09-11T07:32:44.574Z,47.52
2018-09-11T07:35:12.450Z,47.91
2018-09-11T07:37:40.213Z,47.60
2018-09-11T07:40:08.051Z,47.35
2018-09-11T07:42:35.346Z,47.05
2018-09-11T07:45:03.202Z,47.45
2018-09-11T07:47:31.036Z,47.77
2018-09-11T07:49:58.718Z,47.82
2018-09-11T07:52:26.372Z,47.88
2018-09-11T07:54:53.983Z,47.88
2018-09-11T07:57:21.731Z,47.49
2018-09-11T07:59:49.532Z,47.80
2018-09-11T08:02:17.387Z,47.11
2018-09-11T08:04:44.987Z,46.89
2018-09-11T08:07:12.759Z,47.27
2018-09-11T08:09:40.742Z,47.23
2018-09-11T08:12:08.534Z,46.66
2018-09-11T08:14:36.383Z,47.55
2018-09-11T08:17:04.374Z,46.87
2018-09-11T08:20:55.799Z,47.02
2018-09-11T08:23:23.554Z,47.00
2018-09-11T08:25:51.170Z,46.64
2018-09-11T08:28:19.027Z,47.11
2018-09-11T08:30:46.196Z,46.04
2018-09-11T08:33:13.726Z,45.75
2018-09-11T08:35:41.438Z,45.52
2018-09-11T08:38:09.026Z,45.58
2018-09-11T08:40:36.624Z,46.00
2018-09-11T08:43:05.047Z,46.01
2018-09-11T08:45:32.735Z,46.27
2018-09-11T08:48:00.459Z,46.15
2018-09-11T08:50:28.071Z,45.27
2018-09-11T08:52:55.915Z,45.42
2018-09-11T08:55:23.188Z,45.77
2018-09-11T08:57:50.891Z,44.77
2018-09-11T09:00:18.575Z,44.80
2018-09-11T09:02:45.766Z,44.52
2018-09-11T09:05:13.491Z,44.40
2018-09-11T09:07:41.295Z,44.77
2018-09-11T09:10:08.966Z,44.80
2018-09-11T09:12:36.578Z,44.94
2018-09-11T09:15:04.203Z,44.30
2018-09-11T09:17:31.911Z,44.18
2018-09-11T09:19:59.581Z,44.62
2018-09-11T09:22:26.730Z,43.86
2018-09-11T09:24:54.506Z,43.64
2018-09-11T09:27:22.204Z,44.46
2018-09-11T09:29:49.992Z,43.82
2018-09-11T09:32:17.966Z,44.07
2018-09-11T09:34:45.595Z,43.76
2018-09-11T09:37:13.306Z,44.61
2018-09-11T09:39:40.458Z,44.24
2018-09-11T09:42:08.062Z,43.87
2018-09-11T09:44:35.363Z,43.92
2018-09-11T09:47:03.002Z,44.46
2018-09-11T09:49:30.744Z,43.58
2018-09-11T09:51:58.567Z,43.46
2018-09-11T09:54:26.498Z,44.30
2018-09-11T09:56:54.052Z,44.25
2018-09-11T09:59:21.439Z,44.16
2018-09-11T10:01:54.978Z,43.79
2018-09-11T10:04:22.743Z,44.13
2018-09-11T10:06:50.499Z,43.97
2018-09-11T10:09:18.582Z,43.31
2018-09-11T10:11:46.322Z,43.62
2018-09-11T10:14:13.882Z,43.98
2018-09-11T10:16:41.579Z,44.02
2018-09-11T10:19:09.303Z,43.98
2018-09-11T10:21:36.906Z,43.15
2018-09-11T10:24:04.976Z,43.15
2018-09-11T10:26:32.737Z,43.96
2018-09-11T10:29:00.491Z,43.42
2018-09-11T10:31:28.208Z,43.05
2018-09-11T10:33:55.818Z,43.91
2018-09-11T10:36:23.507Z,43.84
2018-09-11T10:38:50.595Z,43.72
2018-09-11T10:41:18.308Z,43.48
2018-09-11T10:43:45.884Z,42.92
2018-09-11T10:46:13.798Z,42.96
2018-09-11T10:48:41.547Z,43.87
2018-09-11T10:51:09.078Z,42.85
2018-09-11T10:53:36.828Z,42.88
2018-09-11T10:56:04.587Z,43.69
2018-09-11T10:58:32.347Z,43.74
2018-09-11T11:00:59.947Z,43.37
2018-09-11T11:03:27.575Z,42.84
2018-09-11T11:05:55.366Z,42.97
2018-09-11T11:08:22.994Z,43.23
2018-09-11T11:10:50.951Z,43.32
2018-09-11T11:13:18.498Z,43.45
2018-09-11T11:15:46.170Z,43.31
2018-09-11T11:18:13.966Z,43.67
2018-09-11T11:20:41.657Z,43.25
2018-09-11T11:23:09.074Z,43.23
2018-09-11T11:25:36.753Z,43.68
2018-09-11T11:28:04.551Z,43.58
2018-09-11T11:30:32.193Z,43.40
2018-09-11T11:32:59.738Z,43.45
2018-09-11T11:35:27.587Z,42.83
2018-09-11T11:37:55.418Z,43.28
2018-09-11T11:40:23.177Z,43.25
2018-09-11T11:42:51.019Z,43.67
2018-09-11T11:45:19.572Z,42.76
2018-09-11T11:47:47.350Z,43.74
2018-09-11T11:50:15.071Z,43.69
2018-09-11T11:52:42.862Z,43.50
2018-09-11T11:55:10.700Z,43.49
2018-09-11T11:57:37.674Z,43.56
2018-09-11T12:00:05.435Z,42.70
2018-09-11T12:02:33.467Z,43.54
2018-09-11T12:05:01.101Z,43.54
2018-09-11T12:07:28.862Z,42.63
2018-09-11T12:09:56.842Z,42.73
2018-09-11T12:12:24.589Z,42.96
2018-09-11T12:14:52.307Z,42.72
2018-09-11T12:17:19.999Z,43.36
2018-09-11T12:19:47.654Z,43.02
2018-09-11T12:22:15.408Z,43.07
2018-09-11T12:24:43.013Z,43.35
2018-09-11T12:27:10.771Z,42.96
2018-09-11T12:29:37.965Z,43.43
2018-09-11T12:32:05.183Z,43.38
2018-09-11T12:34:33.043Z,43.12
2018-09-11T12:37:00.740Z,43.27
2018-09-11T12:39:28.619Z,42.37
2018-09-11T12:41:56.306Z,42.44
2018-09-11T12:44:23.899Z,43.07
2018-09-11T12:46:51.738Z,43.08
2018-09-11T12:49:19.519Z,42.95
2018-09-11T12:51:47.231Z,42.55
2018-09-11T12:54:14.919Z,43.09
2018-09-11T12:56:42.481Z,42.81
2018-09-11T12:59:10.071Z,42.26
2018-09-11T13:01:37.890Z,43.01
2018-09-11T13:04:05.800Z,42.07
2018-09-11T13:06:33.928Z,42.57
2018-09-11T13:09:01.626Z,43.00
2018-09-11T13:11:29.306Z,43.07
2018-09-11T13:13:56.912Z,42.13
2018-09-11T13:16:24.590Z,42.97
2018-09-11T13:18:52.579Z,42.88
2018-09-11T13:21:20.495Z,42.18
2018-09-11T13:23:48.035Z,42.77
2018-09-11T13:26:15.676Z,42.01
2018-09-11T13:28:43.786Z,42.46
2018-09-11T13:31:10.986Z,42.67
2018-09-11T13:33:38.809Z,42.49
2018-09-11T13:36:06.579Z,42.48
2018-09-11T13:38:34.183Z,42.33
2018-09-11T13:41:01.887Z,42.72
2018-09-11T13:43:29.592Z,42.76
2018-09-11T13:45:57.266Z,41.98
2018-09-11T13:48:24.959Z,42.45
2018-09-11T13:50:52.714Z,42.17
2018-09-11T13:53:19.942Z,41.97
2018-09-11T13:55:47.595Z,42.59
2018-09-11T13:58:15.191Z,42.72
2018-09-11T14:00:42.919Z,42.73
2018-09-11T14:03:10.031Z,41.93
2018-09-11T14:05:37.743Z,42.31
2018-09-11T14:08:06.407Z,41.94
2018-09-11T14:10:34.197Z,42.10
2018-09-11T14:13:01.876Z,42.56
2018-09-11T14:15:29.583Z,42.79
2018-09-11T14:17:57.520Z,42.37
2018-09-11T14:20:25.045Z,41.76
2018-09-11T14:22:52.755Z,42.18
2018-09-11T14:25:20.576Z,41.87
2018-09-11T14:27:48.382Z,42.35
2018-09-11T14:30:15.554Z,41.84
2018-09-11T14:32:43.541Z,42.39
2018-09-11T14:35:11.426Z,42.39
2018-09-11T14:37:38.654Z,41.46
2018-09-11T14:40:06.313Z,42.57
2018-09-11T14:42:33.987Z,41.86
2018-09-11T14:45:01.751Z,41.71
2018-09-11T14:47:35.575Z,41.58
2018-09-11T14:50:05.386Z,41.57
2018-09-11T14:52:33.247Z,41.66
2018-09-11T14:55:00.822Z,42.38
2018-09-11T14:57:28.799Z,42.04
2018-09-11T14:59:55.870Z,42.35
2018-09-11T15:02:23.603Z,42.19
2018-09-11T15:04:51.431Z,41.84
2018-09-11T15:07:19.010Z,42.62
2018-09-11T15:09:46.846Z,42.28
2018-09-11T15:12:14.591Z,41.81
2018-09-11T15:14:42.390Z,42.45
2018-09-11T15:17:10.044Z,42.26
2018-09-11T15:19:37.750Z,41.79
2018-09-11T15:22:05.641Z,42.43
2018-09-11T15:24:33.407Z,42.38
2018-09-11T15:27:01.007Z,42.40
2018-09-11T15:29:28.730Z,42.11
2018-09-11T15:31:56.463Z,41.79
2018-09-11T15:34:24.031Z,42.07
2018-09-11T15:36:51.734Z,41.96
2018-09-11T15:39:19.479Z,42.55
2018-09-11T15:41:47.063Z,42.19
2018-09-11T15:44:15.063Z,41.81
2018-09-11T15:46:42.726Z,41.53
2018-09-11T15:49:10.789Z,41.49
2018-09-11T15:51:38.539Z,42.18
2018-09-11T15:54:06.583Z,41.14
2018-09-11T15:56:34.371Z,42.03
2018-09-11T15:59:02.047Z,41.15
2018-09-11T16:01:29.860Z,41.20
2018-09-11T16:03:57.823Z,42.07
2018-09-11T16:06:24.975Z,41.95
2018-09-11T16:08:52.667Z,41.57
2018-09-11T16:11:20.311Z,41.32
2018-09-11T16:13:48.171Z,42.07
2018-09-11T16:16:15.755Z,41.95
2018-09-11T16:18:43.614Z,41.68
2018-09-11T16:21:11.543Z,41.18
2018-09-11T16:23:39.307Z,42.01
2018-09-11T16:26:07.030Z,41.51
2018-09-11T16:28:34.219Z,41.29
2018-09-11T16:31:01.860Z,41.29
2018-09-11T16:33:29.866Z,41.27
2018-09-11T16:35:57.600Z,41.27
2018-09-11T16:38:25.339Z,41.53
2018-09-11T16:40:53.056Z,42.20
2018-09-11T16:43:20.732Z,41.22
2018-09-11T16:45:48.571Z,42.14
2018-09-11T16:48:16.607Z,42.08
2018-09-11T16:50:44.417Z,41.80
2018-09-11T16:53:12.075Z,41.34
2018-09-11T16:55:39.741Z,42.00
2018-09-11T16:58:06.974Z,41.33
2018-09-11T17:00:34.342Z,41.70
2018-09-11T17:03:01.947Z,41.32
2018-09-11T17:05:29.682Z,41.61
2018-09-11T17:07:57.518Z,41.45
2018-09-11T17:10:25.407Z,41.24
2018-09-11T17:12:53.436Z,41.10
2018-09-11T17:15:21.816Z,41.76
2018-09-11T17:17:49.748Z,41.40
2018-09-11T17:20:17.633Z,41.11
2018-09-11T17:22:45.200Z,40.28
2018-09-11T17:25:12.509Z,39.89
2018-09-11T17:27:40.559Z,39.36
2018-09-11T17:30:08.071Z,39.71
2018-09-11T17:32:35.380Z,39.50
2018-09-11T17:35:03.030Z,39.43
2018-09-11T17:37:32.050Z,40.10
2018-09-11T17:39:59.791Z,40.27
2018-09-11T17:42:27.538Z,39.42
2018-09-11T17:44:55.308Z,39.83
2018-09-11T17:47:28.781Z,40.74
2018-09-11T17:49:57.051Z,40.40
2018-09-11T17:52:24.779Z,40.36
2018-09-11T17:54:52.507Z,40.15
2018-09-11T17:57:20.991Z,40.70
2018-09-11T17:59:48.640Z,39.69
2018-09-11T18:02:16.552Z,40.72
2018-09-11T18:04:44.479Z,40.22
2018-09-11T18:07:12.299Z,39.94
2018-09-11T18:09:40.007Z,40.24
2018-09-11T18:12:07.986Z,39.97
2018-09-11T18:14:35.790Z,39.99
2018-09-11T18:17:03.847Z,40.07
2018-09-11T18:19:31.607Z,40.17
2018-09-11T18:21:59.483Z,40.61
2018-09-11T18:24:27.180Z,40.12
2018-09-11T18:26:54.870Z,40.25
2018-09-11T18:29:23.872Z,40.39
2018-09-11T18:31:51.862Z,40.85
2018-09-11T18:34:19.582Z,41.09
2018-09-11T18:36:47.340Z,41.50
2018-09-11T18:39:14.891Z,40.83
2018-09-11T18:41:43.707Z,41.57
2018-09-11T18:44:11.475Z,42.39
2018-09-11T18:46:39.787Z,42.39
2018-09-11T18:49:08.320Z,41.24
2018-09-11T18:51:35.976Z,42.06
2018-09-11T18:54:03.669Z,42.34
2018-09-11T18:56:31.342Z,42.53
2018-09-11T18:58:59.051Z,42.25
2018-09-11T19:01:27.003Z,42.59
2018-09-11T19:05:50.840Z,42.65
2018-09-11T19:08:18.595Z,42.16
2018-09-11T19:10:46.068Z,42.63
2018-09-11T19:13:13.900Z,42.18
2018-09-11T19:15:41.595Z,42.62
2018-09-11T19:18:09.298Z,42.72
2018-09-11T19:20:37.012Z,42.50
2018-09-11T19:23:04.738Z,42.68
2018-09-11T19:25:32.495Z,42.09
2018-09-11T19:28:00.290Z,42.26
2018-09-11T19:30:27.926Z,41.69
2018-09-11T19:32:55.659Z,42.56
2018-09-11T19:35:23.296Z,41.76
2018-09-11T19:37:51.543Z,42.65
2018-09-11T19:40:20.835Z,42.52
2018-09-11T19:42:48.023Z,43.06
2018-09-11T19:45:15.827Z,43.59
2018-09-11T19:47:43.578Z,43.49
2018-09-11T19:50:11.409Z,43.06
2018-09-11T19:52:38.598Z,44.11
2018-09-11T19:55:07.049Z,43.61
2018-09-11T19:57:34.755Z,43.73
2018-09-11T20:00:02.540Z,43.00
2018-09-11T20:02:30.039Z,42.74
2018-09-11T20:04:57.813Z,43.46
2018-09-11T20:07:25.527Z,43.00
2018-09-11T20:09:53.459Z,43.49
2018-09-11T20:12:21.007Z,43.02
2018-09-11T20:17:44.411Z,42.92
2018-09-11T20:20:12.062Z,43.10
2018-09-11T20:22:39.731Z,42.78
2018-09-11T20:25:07.475Z,43.51
2018-09-11T20:27:35.039Z,43.89
2018-09-11T20:30:02.994Z,43.74
2018-09-11T20:32:30.788Z,43.67
2018-09-11T20:34:58.555Z,43.79
2018-09-11T20:37:26.176Z,42.86
2018-09-11T20:39:53.910Z,43.63
2018-09-11T20:42:21.719Z,43.19
2018-09-11T20:44:49.532Z,43.16
2018-09-11T20:47:17.055Z,42.80
2018-09-11T20:49:44.867Z,43.99
2018-09-11T20:52:12.567Z,43.42
2018-09-11T20:54:40.310Z,43.33
2018-09-11T20:57:07.827Z,43.78
2018-09-11T20:59:35.570Z,43.98
2018-09-11T21:02:03.164Z,43.96
2018-09-11T21:04:30.735Z,44.20
2018-09-11T21:06:58.567Z,44.10
2018-09-11T21:09:25.735Z,43.85
2018-09-11T21:11:53.569Z,43.57
2018-09-11T21:14:21.290Z,44.32
2018-09-11T21:16:48.677Z,44.35
2018-09-11T21:19:16.499Z,43.30
2018-09-11T21:21:44.210Z,44.34
2018-09-11T21:24:11.927Z,43.63
2018-09-11T21:26:39.567Z,43.68
2018-09-11T21:29:07.294Z,43.22
2018-09-11T21:31:35.033Z,43.96
2018-09-11T21:34:02.743Z,43.96
2018-09-11T21:36:30.487Z,44.06
2018-09-11T21:38:58.575Z,44.81
2018-09-11T21:41:26.064Z,44.53
2018-09-11T21:43:53.739Z,44.52
2018-09-11T21:46:21.490Z,43.70
2018-09-11T21:48:49.052Z,44.45
2018-09-11T21:51:16.902Z,43.50
2018-09-11T21:53:44.579Z,43.53
2018-09-11T21:56:12.438Z,44.33
2018-09-11T21:58:40.015Z,44.47
2018-09-11T22:01:13.645Z,43.61
2018-09-11T22:03:41.407Z,44.39
2018-09-11T22:06:09.035Z,44.48
2018-09-11T22:08:36.727Z,44.56
2018-09-11T22:11:03.955Z,43.97
2018-09-11T22:13:31.739Z,44.63
2018-09-11T22:15:59.579Z,44.99
2018-09-11T22:18:27.062Z,45.19
2018-09-11T22:20:54.858Z,45.51
2018-09-11T22:23:22.576Z,45.58
2018-09-11T22:25:50.415Z,45.12
2018-09-11T22:28:18.015Z,45.07
2018-09-11T22:30:45.643Z,45.12
2018-09-11T22:33:13.304Z,45.46
2018-09-11T22:35:41.405Z,46.45
2018-09-11T22:38:09.002Z,45.82
2018-09-11T22:40:36.463Z,45.42
2018-09-11T22:43:04.617Z,46.40
2018-09-11T22:45:32.291Z,46.38
2018-09-11T22:47:59.999Z,45.81
2018-09-11T22:50:28.461Z,46.34
2018-09-11T22:52:56.307Z,47.06
2018-09-11T22:55:23.916Z,46.43
2018-09-11T22:57:51.792Z,46.40
2018-09-11T23:00:19.531Z,46.97
2018-09-11T23:02:47.403Z,47.56
2018-09-11T23:05:15.041Z,47.63
2018-09-11T23:07:42.795Z,47.67
2018-09-11T23:10:10.539Z,46.91
2018-09-11T23:12:38.106Z,47.95
2018-09-11T23:15:06.398Z,47.35
2018-09-11T23:17:34.398Z,47.38
2018-09-11T23:20:02.530Z,48.21
2018-09-11T23:22:30.160Z,48.47
2018-09-11T23:24:57.723Z,48.40
2018-09-11T23:27:25.655Z,48.42
2018-09-11T23:29:52.729Z,48.61
2018-09-11T23:32:20.455Z,48.60
2018-09-11T23:34:48.025Z,48.76
2018-09-11T23:37:15.882Z,48.99
2018-09-11T23:39:43.679Z,48.64
2018-09-11T23:42:11.422Z,48.35
2018-09-11T23:44:39.010Z,49.22
2018-09-11T23:47:06.735Z,49.27
2018-09-11T23:49:34.680Z,49.23
2018-09-11T23:52:02.456Z,48.78
2018-09-11T23:54:30.033Z,49.07
2018-09-11T23:56:57.734Z,49.34
2018-09-11T23:59:25.531Z,49.74
